Time;durP1;ratioP1;P1;durP2;ratioP2;P2;SDS_P1;SDS_P2;PMS_P1;PMS_P2;Temp;Humidity;BMP_temperature;BMP_pressure;BME280_temperature;BME280_humidity;BME280_pressure;Samples;Min_cycle;Max_cycle;Signal;HPM_P1;HPM_P2
2024/02/01 00:02:23;;;;;;;;;;;0.60;82.10;;;;;;5017415;28;87821;-57
2024/02/01 00:04:49;;;;;;;;;;;0.70;82.20;;;;;;5014942;28;86708;-56
2024/02/01 00:07:15;;;;;;;;;;;0.60;82.00;;;;;;5015392;28;86719;-57
2024/02/01 00:09:40;;;;;;;;;;;0.70;82.10;;;;;;5017478;28;86992;-56
2024/02/01 00:12:06;;;;;;;;;;;0.60;82.00;;;;;;5014743;28;88485;-56
2024/02/01 00:14:32;;;;;;;;;;;0.70;82.00;;;;;;5017761;28;86967;-56
2024/02/01 00:16:57;;;;;;;;;;;0.60;81.90;;;;;;5015348;28;88091;-57
2024/02/01 00:19:23;;;;;;;;;;;0.60;81.90;;;;;;5017526;28;87012;-57
2024/02/01 00:21:49;;;;;;;;;;;0.60;82.00;;;;;;5013643;28;87190;-57
2024/02/01 00:24:15;;;;;;;;;;;0.60;81.90;;;;;;5015025;28;88580;-57
2024/02/01 00:26:40;;;;;;;;;;;0.60;82.00;;;;;;5017209;28;87107;-57
2024/02/01 00:29:06;;;;;;;;;;;0.60;82.00;;;;;;5015571;28;86751;-56
2024/02/01 00:31:31;;;;;;;;;;;0.60;81.90;;;;;;5014004;28;88276;-57
2024/02/01 00:33:59;;;;;;;;;;;0.60;81.90;;;;;;5015188;28;86976;-58
2024/02/01 00:36:25;;;;;;;;;;;0.60;81.90;;;;;;5015629;28;90036;-56
2024/02/01 00:38:50;;;;;;;;;;;0.60;81.90;;;;;;5017516;28;87589;-55
2024/02/01 00:41:17;;;;;;;;;;;0.60;81.90;;;;;;5014235;28;87025;-57
2024/02/01 00:43:43;;;;;;;;;;;0.60;82.00;;;;;;5017366;28;87552;-57
2024/02/01 00:46:09;;;;;;;;;;;0.50;81.90;;;;;;5015034;28;87089;-57
2024/02/01 00:48:34;;;;;;;;;;;0.50;81.90;;;;;;5016280;28;86905;-57
2024/02/01 00:51:00;;;;;;;;;;;0.60;81.90;;;;;;5018384;28;87393;-55
2024/02/01 00:53:27;;;;;;;;;;;0.50;81.80;;;;;;5018064;28;86332;-57
2024/02/01 00:55:53;;;;;;;;;;;0.50;81.80;;;;;;5021038;28;87015;-56
2024/02/01 00:58:18;;;;;;;;;;;0.50;81.70;;;;;;5020627;28;88719;-57
2024/02/01 01:00:44;;;;;;;;;;;0.50;81.80;;;;;;5020469;28;87850;-57
2024/02/01 01:03:09;;;;;;;;;;;0.50;81.70;;;;;;5021289;28;87427;-56
2024/02/01 01:05:35;;;;;;;;;;;0.50;81.70;;;;;;5018096;28;87165;-54
2024/02/01 01:08:00;;;;;;;;;;;0.50;81.70;;;;;;5020933;28;86771;-57
2024/02/01 01:10:26;;;;;;;;;;;0.50;81.80;;;;;;5017434;28;87493;-56
2024/02/01 01:12:52;;;;;;;;;;;0.50;81.80;;;;;;5020548;28;87137;-57
2024/02/01 01:15:17;;;;;;;;;;;0.50;81.80;;;;;;5017812;28;87797;-56
2024/02/01 01:17:43;;;;;;;;;;;0.40;81.80;;;;;;5020790;28;86756;-57
2024/02/01 01:20:09;;;;;;;;;;;0.40;81.80;;;;;;5020784;28;87049;-56
2024/02/01 01:22:34;;;;;;;;;;;0.40;82.40;;;;;;5020281;28;87588;-56
2024/02/01 01:25:00;;;;;;;;;;;0.40;81.80;;;;;;5016575;28;87951;-55
2024/02/01 01:27:25;;;;;;;;;;;0.50;81.80;;;;;;5017770;28;87722;-57
2024/02/01 01:29:51;;;;;;;;;;;0.40;81.80;;;;;;5019706;28;88450;-57
2024/02/01 01:32:17;;;;;;;;;;;0.40;81.80;;;;;;5018176;28;87699;-56
2024/02/01 01:34:42;;;;;;;;;;;0.40;81.70;;;;;;5016874;28;87008;-53
2024/02/01 01:37:08;;;;;;;;;;;0.40;81.70;;;;;;5019606;28;87460;-54
2024/02/01 01:39:34;;;;;;;;;;;0.40;81.70;;;;;;5017967;28;86931;-57
2024/02/01 01:41:59;;;;;;;;;;;0.40;81.70;;;;;;5022579;28;86550;-56
2024/02/01 01:44:25;;;;;;;;;;;0.40;81.80;;;;;;5018046;28;86881;-57
2024/02/01 01:46:50;;;;;;;;;;;0.30;81.70;;;;;;5019940;28;87010;-57
2024/02/01 01:49:16;;;;;;;;;;;0.40;81.70;;;;;;5016686;28;88162;-56
2024/02/01 01:51:42;;;;;;;;;;;0.40;81.60;;;;;;5019887;28;86945;-56
2024/02/01 01:54:08;;;;;;;;;;;0.40;81.70;;;;;;5015252;28;86944;-55
2024/02/01 01:56:37;;;;;;;;;;;0.30;81.60;;;;;;5019345;28;88442;-56
2024/02/01 01:59:03;;;;;;;;;;;0.30;81.60;;;;;;5017174;28;86997;-57
2024/02/01 02:01:29;;;;;;;;;;;0.30;81.60;;;;;;5019032;28;87228;-53
2024/02/01 02:03:56;;;;;;;;;;;0.30;81.60;;;;;;5019631;28;87482;-56
2024/02/01 02:06:21;;;;;;;;;;;0.30;81.60;;;;;;5016951;28;88092;-57
2024/02/01 02:08:47;;;;;;;;;;;0.30;81.50;;;;;;5020063;28;87293;-57
2024/02/01 02:11:14;;;;;;;;;;;0.30;81.50;;;;;;5013496;28;87233;-56
2024/02/01 02:13:46;;;;;;;;;;;0.30;81.60;;;;;;5013153;28;87865;-56
2024/02/01 02:16:12;;;;;;;;;;;0.30;81.50;;;;;;5015211;28;87373;-56
2024/02/01 02:18:37;;;;;;;;;;;0.30;81.60;;;;;;5014306;28;87033;-56
2024/02/01 02:21:03;;;;;;;;;;;0.30;81.60;;;;;;5019510;28;86913;-56
2024/02/01 02:23:29;;;;;;;;;;;0.30;81.60;;;;;;5007831;28;88601;-55
2024/02/01 02:25:55;;;;;;;;;;;0.30;81.50;;;;;;5015476;28;87076;-56
2024/02/01 02:28:21;;;;;;;;;;;0.20;81.60;;;;;;5019770;28;87439;-56
2024/02/01 02:30:47;;;;;;;;;;;0.20;81.60;;;;;;5020072;28;86323;-55
2024/02/01 02:33:13;;;;;;;;;;;0.20;81.60;;;;;;5016722;28;86953;-56
2024/02/01 02:35:38;;;;;;;;;;;0.20;81.60;;;;;;5019060;28;87281;-57
2024/02/01 02:38:04;;;;;;;;;;;0.20;81.60;;;;;;5016051;28;87942;-56
2024/02/01 02:40:29;;;;;;;;;;;0.20;81.60;;;;;;5019447;28;87783;-57
2024/02/01 02:42:55;;;;;;;;;;;0.20;81.40;;;;;;5019752;28;86800;-56
2024/02/01 02:45:21;;;;;;;;;;;0.20;81.50;;;;;;5019736;28;86889;-56
2024/02/01 02:47:46;;;;;;;;;;;0.20;81.50;;;;;;5016862;28;87136;-57
2024/02/01 02:50:12;;;;;;;;;;;0.20;81.50;;;;;;5015738;28;87056;-56
2024/02/01 02:52:39;;;;;;;;;;;0.20;81.50;;;;;;5016731;28;86960;-57
2024/02/01 02:55:05;;;;;;;;;;;0.10;81.40;;;;;;5019279;28;86777;-56
2024/02/01 02:57:30;;;;;;;;;;;0.10;81.60;;;;;;5016514;28;86896;-56
2024/02/01 02:59:56;;;;;;;;;;;0.10;81.50;;;;;;5019116;28;87005;-57
2024/02/01 03:02:21;;;;;;;;;;;0.10;81.40;;;;;;5015386;28;88243;-56
2024/02/01 03:04:47;;;;;;;;;;;0.10;81.50;;;;;;5014846;28;87232;-55
2024/02/01 03:07:13;;;;;;;;;;;0.10;81.50;;;;;;5016609;28;87020;-56
2024/02/01 03:09:38;;;;;;;;;;;0.10;81.40;;;;;;5018991;28;86968;-57
2024/02/01 03:12:06;;;;;;;;;;;0.10;81.40;;;;;;5016119;28;86919;-55
2024/02/01 03:14:39;;;;;;;;;;;0.10;81.50;;;;;;5013918;28;88494;-56
2024/02/01 03:17:05;;;;;;;;;;;0.10;81.40;;;;;;5011269;28;87359;-55
2024/02/01 03:19:40;;;;;;;;;;;0.10;81.50;;;;;;5014474;28;86621;-56
2024/02/01 03:22:06;;;;;;;;;;;0.10;81.40;;;;;;5015811;28;86883;-55
2024/02/01 03:24:32;;;;;;;;;;;0.10;81.40;;;;;;5013978;28;86950;-56
2024/02/01 03:27:01;;;;;;;;;;;0.00;81.50;;;;;;5018828;28;87970;-55
2024/02/01 03:29:28;;;;;;;;;;;0.00;81.50;;;;;;5011261;28;88574;-56
2024/02/01 03:31:54;;;;;;;;;;;0.00;81.40;;;;;;5018248;28;87854;-56
2024/02/01 03:34:27;;;;;;;;;;;0.00;81.40;;;;;;5011103;28;87569;-55
2024/02/01 03:36:52;;;;;;;;;;;0.00;81.60;;;;;;5017979;28;87013;-56
2024/02/01 03:39:24;;;;;;;;;;;0.00;81.40;;;;;;5009581;28;89675;-55
2024/02/01 03:41:50;;;;;;;;;;;0.00;82.10;;;;;;5010563;28;87487;-56
2024/02/01 03:44:16;;;;;;;;;;;0.00;81.40;;;;;;5016896;28;86350;-56
2024/02/01 03:46:42;;;;;;;;;;;0.00;81.40;;;;;;5013284;28;86954;-56
2024/02/01 03:49:08;;;;;;;;;;;-0.10;81.40;;;;;;5014618;28;87321;-56
2024/02/01 03:51:35;;;;;;;;;;;0.00;81.40;;;;;;5013333;28;87831;-56
2024/02/01 03:54:05;;;;;;;;;;;0.00;82.00;;;;;;5016662;28;87766;-53
2024/02/01 03:56:34;;;;;;;;;;;0.00;81.40;;;;;;5016129;28;86992;-56
2024/02/01 03:59:01;;;;;;;;;;;0.00;81.40;;;;;;5017829;28;86915;-55
2024/02/01 04:01:32;;;;;;;;;;;-0.10;81.40;;;;;;5015223;28;88503;-54
2024/02/01 04:03:58;;;;;;;;;;;-0.10;81.40;;;;;;5018816;28;87056;-56
2024/02/01 04:06:24;;;;;;;;;;;-0.10;81.50;;;;;;5018551;28;87951;-54
2024/02/01 04:08:50;;;;;;;;;;;-0.10;81.50;;;;;;5018889;28;86928;-54
2024/02/01 04:11:16;;;;;;;;;;;-0.10;81.40;;;;;;5014465;28;86888;-56
2024/02/01 04:13:41;;;;;;;;;;;-0.10;81.40;;;;;;5017550;28;87007;-57
2024/02/01 04:16:07;;;;;;;;;;;-0.10;81.50;;;;;;5017439;28;88269;-56
2024/02/01 04:18:33;;;;;;;;;;;-0.10;81.30;;;;;;5014681;28;86882;-54
2024/02/01 04:20:58;;;;;;;;;;;-0.10;81.30;;;;;;5018072;28;86928;-56
2024/02/01 04:23:24;;;;;;;;;;;-0.20;81.40;;;;;;5015549;28;86972;-56
2024/02/01 04:25:50;;;;;;;;;;;-0.20;81.30;;;;;;5018466;28;86885;-55
2024/02/01 04:28:18;;;;;;;;;;;-0.20;81.30;;;;;;5017715;28;86919;-55
2024/02/01 04:30:50;;;;;;;;;;;-0.20;81.30;;;;;;5018252;28;86932;-56
2024/02/01 04:33:19;;;;;;;;;;;-0.20;81.50;;;;;;5017226;28;87727;-55
2024/02/01 04:35:44;;;;;;;;;;;-0.20;81.50;;;;;;5022696;28;87503;-56
2024/02/01 04:38:10;;;;;;;;;;;-0.20;81.40;;;;;;5019572;28;86768;-54
2024/02/01 04:40:36;;;;;;;;;;;-0.20;81.50;;;;;;5019155;28;88177;-54
2024/02/01 04:43:02;;;;;;;;;;;-0.30;81.40;;;;;;5017335;28;86866;-55
2024/02/01 04:45:28;;;;;;;;;;;-0.20;81.40;;;;;;5015745;28;87670;-54
2024/02/01 04:47:53;;;;;;;;;;;-0.30;81.40;;;;;;5015993;28;87605;-55
2024/02/01 04:50:19;;;;;;;;;;;-0.20;81.30;;;;;;5020271;28;86913;-55
2024/02/01 04:52:44;;;;;;;;;;;-0.20;81.40;;;;;;5017971;28;87012;-54
2024/02/01 04:55:10;;;;;;;;;;;-0.30;81.30;;;;;;5014489;28;86965;-53
2024/02/01 04:57:37;;;;;;;;;;;-0.30;81.40;;;;;;5024731;28;86268;-55
2024/02/01 05:00:13;;;;;;;;;;;-0.30;81.40;;;;;;5017372;28;87356;-54
2024/02/01 05:02:41;;;;;;;;;;;-0.30;81.50;;;;;;5015534;28;86949;-55
2024/02/01 05:05:07;;;;;;;;;;;-0.30;81.40;;;;;;5019998;28;87761;-56
2024/02/01 05:07:33;;;;;;;;;;;-0.30;81.40;;;;;;5017163;28;88705;-52
2024/02/01 05:09:59;;;;;;;;;;;-0.30;81.30;;;;;;5020080;28;86846;-53
2024/02/01 05:12:25;;;;;;;;;;;-0.30;81.40;;;;;;5018125;28;86854;-54
2024/02/01 05:14:50;;;;;;;;;;;-0.40;81.40;;;;;;5012888;28;88470;-52
2024/02/01 05:17:16;;;;;;;;;;;-0.40;81.40;;;;;;5027151;28;87088;-51
2024/02/01 05:19:41;;;;;;;;;;;-0.40;81.30;;;;;;5017033;28;87508;-52
2024/02/01 05:22:07;;;;;;;;;;;-0.40;81.40;;;;;;5013672;28;86320;-55
2024/02/01 05:24:33;;;;;;;;;;;-0.40;81.40;;;;;;5013045;28;86883;-55
2024/02/01 05:26:58;;;;;;;;;;;-0.40;81.50;;;;;;5016905;28;87483;-55
2024/02/01 05:29:24;;;;;;;;;;;-0.40;81.30;;;;;;5019610;28;87839;-53
2024/02/01 05:31:51;;;;;;;;;;;-0.40;81.20;;;;;;5012890;28;87979;-57
2024/02/01 05:34:17;;;;;;;;;;;-0.40;81.20;;;;;;5017590;28;87423;-55
2024/02/01 05:36:45;;;;;;;;;;;-0.40;81.30;;;;;;5017671;28;87146;-53
2024/02/01 05:39:24;;;;;;;;;;;-0.40;81.30;;;;;;5018816;28;87904;-56
2024/02/01 05:41:57;;;;;;;;;;;-0.40;81.40;;;;;;5016302;28;86907;-55
2024/02/01 05:44:23;;;;;;;;;;;-0.40;81.30;;;;;;5016496;28;87002;-53
2024/02/01 05:46:49;;;;;;;;;;;-0.50;81.20;;;;;;5018418;28;86844;-53
2024/02/01 05:49:18;;;;;;;;;;;-0.50;81.30;;;;;;5016262;28;87116;-54
2024/02/01 05:51:47;;;;;;;;;;;-0.50;81.30;;;;;;5019761;28;87006;-54
2024/02/01 05:54:13;;;;;;;;;;;-0.50;81.30;;;;;;5015134;28;89489;-55
2024/02/01 05:56:39;;;;;;;;;;;-0.50;81.30;;;;;;5017196;28;86976;-54
2024/02/01 05:59:04;;;;;;;;;;;-0.50;81.30;;;;;;5014849;28;86875;-56
2024/02/01 06:01:31;;;;;;;;;;;-0.50;81.40;;;;;;5018888;28;87215;-54
2024/02/01 06:03:56;;;;;;;;;;;-0.50;81.40;;;;;;5016487;28;87651;-56
2024/02/01 06:06:22;;;;;;;;;;;-0.50;81.40;;;;;;5016648;28;87499;-56
2024/02/01 06:08:47;;;;;;;;;;;-0.50;81.30;;;;;;5017694;28;87771;-53
2024/02/01 06:11:13;;;;;;;;;;;-0.60;81.30;;;;;;5013727;28;86216;-55
2024/02/01 06:13:38;;;;;;;;;;;-0.60;81.30;;;;;;5014060;28;87514;-55
2024/02/01 06:16:04;;;;;;;;;;;-0.50;81.40;;;;;;5016520;28;87053;-54
2024/02/01 06:18:32;;;;;;;;;;;-0.60;81.30;;;;;;5019529;28;87870;-55
2024/02/01 06:20:57;;;;;;;;;;;-0.60;81.20;;;;;;5015928;28;87833;-52
2024/02/01 06:23:23;;;;;;;;;;;-0.60;81.20;;;;;;5023137;28;87161;-57
2024/02/01 06:25:49;;;;;;;;;;;-0.60;81.10;;;;;;5016353;28;87302;-53
2024/02/01 06:28:14;;;;;;;;;;;-0.60;81.30;;;;;;5009867;28;86853;-53
2024/02/01 06:30:40;;;;;;;;;;;-0.60;81.30;;;;;;5011359;28;86919;-54
2024/02/01 06:33:06;;;;;;;;;;;-0.60;81.20;;;;;;5015634;28;88500;-52
2024/02/01 06:35:33;;;;;;;;;;;-0.60;81.20;;;;;;5015945;28;86167;-55
2024/02/01 06:38:15;;;;;;;;;;;-0.60;81.20;;;;;;5019663;28;87141;-55
2024/02/01 06:43:17;;;;;;;;;;;-0.50;81.20;;;;;;5017813;28;87867;-53
2024/02/01 06:46:01;;;;;;;;;;;-0.60;81.10;;;;;;5018283;28;89157;-55
2024/02/01 06:48:40;;;;;;;;;;;-0.60;81.10;;;;;;5017897;28;86819;-55
2024/02/01 06:51:20;;;;;;;;;;;-0.60;81.20;;;;;;5015754;28;88062;-55
2024/02/01 06:53:56;;;;;;;;;;;-0.60;81.20;;;;;;5016990;28;88442;-55
2024/02/01 06:56:44;;;;;;;;;;;-0.60;81.10;;;;;;5013214;28;86993;-54
2024/02/01 06:59:30;;;;;;;;;;;-0.60;81.10;;;;;;5016527;28;87426;-52
2024/02/01 07:02:06;;;;;;;;;;;-0.60;81.10;;;;;;5013015;28;87745;-54
2024/02/01 07:04:42;;;;;;;;;;;-0.60;81.00;;;;;;5011459;28;86889;-55
2024/02/01 07:07:26;;;;;;;;;;;-0.70;81.00;;;;;;5021730;28;87998;-54
2024/02/01 07:09:58;;;;;;;;;;;-0.70;81.10;;;;;;5016932;28;87939;-55
2024/02/01 07:12:42;;;;;;;;;;;-0.60;81.10;;;;;;5019413;28;87667;-52
2024/02/01 07:17:59;;;;;;;;;;;-0.60;81.00;;;;;;5016557;28;86878;-55
2024/02/01 07:20:35;;;;;;;;;;;-0.60;81.00;;;;;;5014591;28;87962;-52
2024/02/01 07:23:33;;;;;;;;;;;-0.70;81.00;;;;;;5013754;28;88653;-55
2024/02/01 07:26:01;;;;;;;;;;;-0.70;81.00;;;;;;5016755;28;86927;-53
2024/02/01 07:58:43;;;;;;;;;;;-0.80;81.40;;;;;;5013047;28;86850;-54
2024/02/01 08:01:17;;;;;;;;;;;-0.80;81.30;;;;;;5015155;28;87003;-56
2024/02/01 08:09:25;;;;;;;;;;;-0.80;81.50;;;;;;5015618;28;86755;-56
2024/02/01 08:11:51;;;;;;;;;;;-0.70;81.70;;;;;;5017624;28;88028;-55
2024/02/01 08:14:16;;;;;;;;;;;-0.70;81.50;;;;;;5012297;28;88490;-55
2024/02/01 08:16:43;;;;;;;;;;;-0.80;81.60;;;;;;5018071;28;86971;-55
2024/02/01 08:19:08;;;;;;;;;;;-0.80;81.50;;;;;;5017103;28;87056;-56
2024/02/01 08:21:37;;;;;;;;;;;-0.80;81.50;;;;;;5015091;28;86296;-56
2024/02/01 08:24:05;;;;;;;;;;;-0.80;81.80;;;;;;5015631;28;87191;-56
2024/02/01 08:26:37;;;;;;;;;;;-0.80;81.80;;;;;;5012449;28;87594;-54
2024/02/01 08:29:03;;;;;;;;;;;-0.90;81.90;;;;;;5014191;28;87825;-56
2024/02/01 08:31:36;;;;;;;;;;;-0.90;81.90;;;;;;5016865;28;87974;-55
2024/02/01 08:34:07;;;;;;;;;;;-0.90;82.00;;;;;;5014681;28;88485;-55
2024/02/01 08:36:41;;;;;;;;;;;-0.90;82.30;;;;;;5014366;28;86987;-55
2024/02/01 08:39:08;;;;;;;;;;;-0.90;82.40;;;;;;5015319;28;87954;-55
2024/02/01 08:41:35;;;;;;;;;;;-0.90;82.20;;;;;;5018958;28;88578;-54
2024/02/01 08:44:02;;;;;;;;;;;-0.90;82.20;;;;;;5015727;28;88375;-53
2024/02/01 08:46:28;;;;;;;;;;;-0.90;82.20;;;;;;5013674;28;87349;-55
2024/02/01 08:48:54;;;;;;;;;;;-0.90;82.90;;;;;;5011554;28;86988;-55
2024/02/01 08:51:19;;;;;;;;;;;-0.90;82.30;;;;;;5016755;28;86872;-54
2024/02/01 08:53:45;;;;;;;;;;;-0.90;82.40;;;;;;5014799;28;88479;-56
2024/02/01 08:56:13;;;;;;;;;;;-0.90;82.40;;;;;;5014068;28;87174;-55
2024/02/01 08:58:41;;;;;;;;;;;-0.80;82.40;;;;;;5015307;28;87093;-54
2024/02/01 09:01:20;;;;;;;;;;;-0.90;82.30;;;;;;5007459;28;88601;-56
2024/02/01 09:03:49;;;;;;;;;;;-0.90;82.40;;;;;;5016660;28;86909;-53
2024/02/01 09:06:15;;;;;;;;;;;-0.90;82.30;;;;;;5010227;28;88578;-56
2024/02/01 09:08:41;;;;;;;;;;;-0.80;82.70;;;;;;5014935;28;87033;-57
2024/02/01 09:11:14;;;;;;;;;;;-0.80;82.50;;;;;;5017349;28;87876;-55
2024/02/01 09:13:44;;;;;;;;;;;-0.80;82.60;;;;;;5018884;28;88601;-57
2024/02/01 09:16:21;;;;;;;;;;;-0.80;82.70;;;;;;5018950;28;87056;-55
2024/02/01 09:18:47;;;;;;;;;;;-0.80;82.80;;;;;;5019471;28;87917;-55
2024/02/01 09:21:12;;;;;;;;;;;-0.80;82.80;;;;;;5016494;28;87602;-55
2024/02/01 09:23:38;;;;;;;;;;;-0.80;82.80;;;;;;5020553;28;87045;-55
2024/02/01 09:26:04;;;;;;;;;;;-0.70;82.80;;;;;;5018343;28;87474;-56
2024/02/01 09:28:29;;;;;;;;;;;-0.80;83.20;;;;;;5010461;28;87197;-56
2024/02/01 09:30:55;;;;;;;;;;;-0.80;82.80;;;;;;5017044;28;87898;-56
2024/02/01 09:33:27;;;;;;;;;;;-0.80;82.60;;;;;;5020156;28;88441;-53
2024/02/01 09:35:53;;;;;;;;;;;-0.80;82.90;;;;;;5009881;28;86262;-57
2024/02/01 09:38:19;;;;;;;;;;;-0.80;82.80;;;;;;5020503;28;87065;-57
2024/02/01 09:40:45;;;;;;;;;;;-0.80;82.90;;;;;;5019399;28;88671;-56
2024/02/01 09:43:21;;;;;;;;;;;-0.80;82.90;;;;;;5016902;28;87803;-56
2024/02/01 09:45:50;;;;;;;;;;;-0.80;83.00;;;;;;5019093;28;87580;-55
2024/02/01 09:48:16;;;;;;;;;;;-0.80;82.90;;;;;;5017991;28;87006;-57
2024/02/01 09:51:03;;;;;;;;;;;-0.70;82.90;;;;;;5016800;28;87168;-56
2024/02/01 09:53:28;;;;;;;;;;;-0.70;82.90;;;;;;5017650;28;89901;-56
2024/02/01 09:55:54;;;;;;;;;;;-0.70;82.90;;;;;;5020796;28;86990;-55
2024/02/01 09:58:21;;;;;;;;;;;-0.70;83.00;;;;;;5019300;28;88040;-55
2024/02/01 10:00:47;;;;;;;;;;;-0.80;83.00;;;;;;5018280;28;87212;-53
2024/02/01 10:03:15;;;;;;;;;;;-0.70;83.10;;;;;;5019246;28;86966;-54
2024/02/01 10:05:42;;;;;;;;;;;-0.70;83.10;;;;;;5016697;28;86856;-56
2024/02/01 10:08:10;;;;;;;;;;;-0.70;83.20;;;;;;5018486;28;89644;-55
2024/02/01 10:10:38;;;;;;;;;;;-0.70;83.20;;;;;;5019310;28;88938;-54
2024/02/01 10:13:06;;;;;;;;;;;-0.70;83.20;;;;;;5016289;28;87298;-55
2024/02/01 10:15:32;;;;;;;;;;;-0.70;83.20;;;;;;5019223;28;87041;-54
2024/02/01 10:17:59;;;;;;;;;;;-0.70;83.20;;;;;;5012524;28;88584;-54
2024/02/01 10:20:35;;;;;;;;;;;-0.70;83.50;;;;;;5011106;28;88956;-54
2024/02/01 10:23:02;;;;;;;;;;;-0.70;83.50;;;;;;5016213;28;86968;-55
2024/02/01 10:25:33;;;;;;;;;;;-0.70;83.30;;;;;;5016664;28;87984;-55
2024/02/01 10:28:06;;;;;;;;;;;-0.70;83.50;;;;;;5019691;28;88462;-54
2024/02/01 10:30:32;;;;;;;;;;;-0.60;83.20;;;;;;5019091;28;86928;-55
2024/02/01 10:33:01;;;;;;;;;;;-0.60;83.20;;;;;;5014414;28;89652;-53
2024/02/01 10:35:29;;;;;;;;;;;-0.60;83.10;;;;;;5020000;28;86914;-54
2024/02/01 10:37:54;;;;;;;;;;;-0.60;83.30;;;;;;5020745;28;87950;-57
2024/02/01 10:40:25;;;;;;;;;;;-0.50;83.00;;;;;;5018970;28;88399;-54
2024/02/01 10:42:51;;;;;;;;;;;-0.50;83.40;;;;;;5015905;28;86926;-56
2024/02/01 10:45:18;;;;;;;;;;;-0.60;83.60;;;;;;5019907;28;86909;-56
2024/02/01 10:47:46;;;;;;;;;;;-0.60;83.70;;;;;;5015646;28;87436;-56
2024/02/01 10:50:14;;;;;;;;;;;-0.60;83.80;;;;;;5016304;28;86262;-52
2024/02/01 10:52:40;;;;;;;;;;;-0.50;83.60;;;;;;5016780;28;87026;-55
2024/02/01 10:55:09;;;;;;;;;;;-0.50;83.50;;;;;;5017334;28;86968;-52
2024/02/01 10:57:41;;;;;;;;;;;-0.50;83.90;;;;;;5017813;28;87849;-53
2024/02/01 11:00:11;;;;;;;;;;;-0.50;83.70;;;;;;5017355;28;88606;-53
2024/02/01 11:02:38;;;;;;;;;;;-0.50;84.00;;;;;;5017045;28;86961;-55
2024/02/01 11:05:08;;;;;;;;;;;-0.50;84.10;;;;;;5018267;28;87057;-55
2024/02/01 11:07:34;;;;;;;;;;;-0.50;83.70;;;;;;5015740;28;87763;-55
2024/02/01 11:10:00;;;;;;;;;;;-0.50;83.70;;;;;;5019052;28;87300;-55
2024/02/01 11:12:26;;;;;;;;;;;-0.50;83.70;;;;;;5015942;28;87803;-52
2024/02/01 11:14:51;;;;;;;;;;;-0.40;84.00;;;;;;5021971;28;86634;-56
2024/02/01 11:17:21;;;;;;;;;;;-0.40;83.80;;;;;;5015632;28;86801;-55
2024/02/01 11:19:48;;;;;;;;;;;-0.40;83.80;;;;;;5015359;28;87091;-53
2024/02/01 11:22:15;;;;;;;;;;;-0.40;83.80;;;;;;5014979;28;87927;-52
2024/02/01 11:24:43;;;;;;;;;;;-0.40;83.80;;;;;;5015650;28;88911;-55
2024/02/01 11:27:14;;;;;;;;;;;-0.40;83.80;;;;;;5018217;28;87490;-54
2024/02/01 11:29:45;;;;;;;;;;;-0.40;83.40;;;;;;5016585;28;87014;-54
2024/02/01 11:32:14;;;;;;;;;;;-0.30;83.40;;;;;;5019132;28;87777;-56
2024/02/01 11:34:49;;;;;;;;;;;-0.40;83.40;;;;;;5023527;28;87457;-55
2024/02/01 11:37:15;;;;;;;;;;;-0.30;83.20;;;;;;5018770;28;87875;-55
2024/02/01 11:39:45;;;;;;;;;;;-0.30;83.40;;;;;;5015427;28;86697;-52
2024/02/01 11:42:11;;;;;;;;;;;-0.40;83.40;;;;;;5018613;28;86576;-52
2024/02/01 11:44:40;;;;;;;;;;;-0.30;83.50;;;;;;5015120;28;88010;-55
2024/02/01 11:47:06;;;;;;;;;;;-0.30;83.50;;;;;;5013522;28;89743;-55
2024/02/01 11:49:36;;;;;;;;;;;-0.30;83.40;;;;;;5018333;28;87282;-53
2024/02/01 11:52:13;;;;;;;;;;;-0.30;83.70;;;;;;5013599;28;87080;-54
2024/02/01 11:54:59;;;;;;;;;;;-0.30;83.20;;;;;;5014224;28;88536;-55
2024/02/01 11:57:30;;;;;;;;;;;-0.20;83.10;;;;;;5017840;28;87007;-55
2024/02/01 11:59:56;;;;;;;;;;;-0.20;83.20;;;;;;5014692;28;86915;-53
2024/02/01 12:02:22;;;;;;;;;;;-0.20;83.10;;;;;;5014534;28;86964;-55
2024/02/01 12:04:48;;;;;;;;;;;-0.20;83.00;;;;;;5017803;28;87113;-56
2024/02/01 12:07:18;;;;;;;;;;;-0.20;83.00;;;;;;5015893;28;87536;-55
2024/02/01 12:09:47;;;;;;;;;;;-0.20;83.70;;;;;;5017591;28;87015;-56
2024/02/01 12:12:17;;;;;;;;;;;-0.20;83.30;;;;;;5017980;28;87986;-55
2024/02/01 12:14:43;;;;;;;;;;;-0.20;83.60;;;;;;5010621;28;88365;-53
2024/02/01 12:17:09;;;;;;;;;;;-0.10;83.20;;;;;;5016520;28;87017;-54
2024/02/01 12:19:38;;;;;;;;;;;-0.10;83.20;;;;;;5016935;28;88069;-53
2024/02/01 12:22:07;;;;;;;;;;;-0.10;83.60;;;;;;5015023;28;86974;-56
2024/02/01 12:24:36;;;;;;;;;;;-0.10;83.10;;;;;;5017347;28;86950;-53
2024/02/01 12:27:02;;;;;;;;;;;-0.10;83.20;;;;;;5011675;28;87437;-55
2024/02/01 12:29:28;;;;;;;;;;;-0.10;84.00;;;;;;5011770;28;86290;-53
2024/02/01 12:31:54;;;;;;;;;;;0.00;83.30;;;;;;5016701;28;86963;-55
2024/02/01 12:34:19;;;;;;;;;;;0.00;83.80;;;;;;5015596;28;88430;-55
2024/02/01 12:36:48;;;;;;;;;;;0.00;83.40;;;;;;5017697;28;87948;-55
2024/02/01 12:39:14;;;;;;;;;;;0.00;83.70;;;;;;5016250;28;89064;-55
2024/02/01 12:41:40;;;;;;;;;;;0.00;83.60;;;;;;5012078;28;87671;-55
2024/02/01 12:44:09;;;;;;;;;;;0.10;83.80;;;;;;5016721;28;87930;-56
2024/02/01 12:46:38;;;;;;;;;;;0.10;84.10;;;;;;5018798;28;88263;-55
2024/02/01 12:49:04;;;;;;;;;;;0.10;83.50;;;;;;5021795;28;87194;-55
2024/02/01 12:51:30;;;;;;;;;;;0.10;83.90;;;;;;5020709;28;87707;-56
2024/02/01 12:53:55;;;;;;;;;;;0.10;84.00;;;;;;5018783;28;86712;-56
2024/02/01 12:56:23;;;;;;;;;;;0.10;83.30;;;;;;5020280;28;87060;-56
2024/02/01 12:58:49;;;;;;;;;;;0.10;83.70;;;;;;5018626;28;87816;-55
2024/02/01 13:01:15;;;;;;;;;;;0.10;83.80;;;;;;5016586;28;89496;-56
2024/02/01 13:03:41;;;;;;;;;;;0.20;83.80;;;;;;5023673;28;87136;-54
2024/02/01 13:06:07;;;;;;;;;;;0.20;83.60;;;;;;5017994;28;87484;-54
2024/02/01 13:08:39;;;;;;;;;;;0.20;84.00;;;;;;5020640;28;87873;-55
2024/02/01 13:11:07;;;;;;;;;;;0.30;83.40;;;;;;5017016;28;87861;-55
2024/02/01 13:13:33;;;;;;;;;;;0.20;83.70;;;;;;5020497;28;87537;-55
2024/02/01 13:15:59;;;;;;;;;;;0.30;84.10;;;;;;5018065;28;87003;-54
2024/02/01 13:18:26;;;;;;;;;;;0.30;84.00;;;;;;5021476;28;86591;-55
2024/02/01 13:20:52;;;;;;;;;;;0.30;84.00;;;;;;5017447;28;88386;-54
2024/02/01 13:23:18;;;;;;;;;;;0.30;83.90;;;;;;5020706;28;87107;-56
2024/02/01 13:25:43;;;;;;;;;;;0.30;84.10;;;;;;5019858;28;87922;-52
2024/02/01 13:28:10;;;;;;;;;;;0.30;83.80;;;;;;5020257;28;86952;-53
2024/02/01 13:30:43;;;;;;;;;;;0.30;83.30;;;;;;5018078;28;86993;-54
2024/02/01 13:33:13;;;;;;;;;;;0.30;83.70;;;;;;5019080;28;87334;-54
2024/02/01 13:35:38;;;;;;;;;;;0.40;83.60;;;;;;5019472;28;87018;-54
2024/02/01 13:38:05;;;;;;;;;;;0.40;83.80;;;;;;5018272;28;86957;-51
2024/02/01 13:40:34;;;;;;;;;;;0.40;84.00;;;;;;5015906;28;88467;-55
2024/02/01 13:43:03;;;;;;;;;;;0.40;84.40;;;;;;5017000;28;86470;-55
2024/02/01 13:45:28;;;;;;;;;;;0.50;84.40;;;;;;5018780;28;86915;-52
2024/02/01 13:47:56;;;;;;;;;;;0.50;84.60;;;;;;5017002;28;86839;-53
2024/02/01 13:50:22;;;;;;;;;;;0.50;84.90;;;;;;5019266;28;87683;-55
2024/02/01 13:52:48;;;;;;;;;;;0.50;85.00;;;;;;5016628;28;87334;-55
2024/02/01 13:55:13;;;;;;;;;;;0.50;85.10;;;;;;5016300;28;87485;-54
2024/02/01 13:57:42;;;;;;;;;;;0.60;84.80;;;;;;5019998;28;86826;-54
2024/02/01 14:00:15;;;;;;;;;;;0.60;85.20;;;;;;5014435;28;87720;-56
2024/02/01 14:02:47;;;;;;;;;;;0.60;85.20;;;;;;5015873;28;86821;-56
2024/02/01 14:05:13;;;;;;;;;;;0.60;85.40;;;;;;5018463;28;86812;-55
2024/02/01 14:07:39;;;;;;;;;;;0.60;85.50;;;;;;5021679;28;86787;-55
2024/02/01 14:10:05;;;;;;;;;;;0.60;85.50;;;;;;5018751;28;86945;-56
2024/02/01 14:12:31;;;;;;;;;;;0.70;85.30;;;;;;5018066;28;87450;-56
2024/02/01 14:14:58;;;;;;;;;;;0.70;85.30;;;;;;5018025;28;88145;-55
2024/02/01 14:17:23;;;;;;;;;;;0.70;85.20;;;;;;5016949;28;89010;-55
2024/02/01 14:19:49;;;;;;;;;;;0.70;85.30;;;;;;5018181;28;87493;-55
2024/02/01 14:22:14;;;;;;;;;;;0.70;85.40;;;;;;5018421;28;87102;-54
2024/02/01 14:24:40;;;;;;;;;;;0.70;85.60;;;;;;5014846;28;86888;-54
2024/02/01 14:27:06;;;;;;;;;;;0.70;85.60;;;;;;5018074;28;87254;-56
2024/02/01 14:29:31;;;;;;;;;;;0.80;85.60;;;;;;5020985;28;87068;-56
2024/02/01 14:31:57;;;;;;;;;;;0.80;85.50;;;;;;5018555;28;86703;-56
2024/02/01 14:34:22;;;;;;;;;;;0.80;85.50;;;;;;5018433;28;87032;-53
2024/02/01 14:36:49;;;;;;;;;;;0.80;85.30;;;;;;5016327;28;86820;-56
2024/02/01 14:39:24;;;;;;;;;;;0.80;85.60;;;;;;5014872;28;88559;-56
2024/02/01 14:41:50;;;;;;;;;;;0.90;85.40;;;;;;5011005;28;86912;-55
2024/02/01 14:44:16;;;;;;;;;;;0.90;85.60;;;;;;5019521;28;86933;-55
2024/02/01 14:46:42;;;;;;;;;;;0.90;85.60;;;;;;5019446;28;88547;-56
2024/02/01 14:49:08;;;;;;;;;;;0.90;85.60;;;;;;5011630;28;87038;-53
2024/02/01 14:51:33;;;;;;;;;;;0.90;85.80;;;;;;5018602;28;86803;-56
2024/02/01 14:53:59;;;;;;;;;;;1.00;85.80;;;;;;5020023;28;87077;-54
2024/02/01 14:56:25;;;;;;;;;;;1.00;85.80;;;;;;5017006;28;86574;-56
2024/02/01 14:58:50;;;;;;;;;;;1.00;86.00;;;;;;5018331;28;86793;-56
2024/02/01 15:01:19;;;;;;;;;;;1.00;86.10;;;;;;5015756;28;87102;-52
2024/02/01 15:03:45;;;;;;;;;;;1.00;85.90;;;;;;5014861;28;88114;-54
2024/02/01 15:06:10;;;;;;;;;;;1.00;86.20;;;;;;5013041;28;87418;-55
2024/02/01 15:08:36;;;;;;;;;;;1.00;86.00;;;;;;5016137;28;87198;-57